sensor_id;sensor_type;location;lat;lon;timestamp;P1;durP1;ratioP1;P2;durP2;ratioP2
38132;SDS011;23948;43.252;26.572;2023-04-03T00:00:06;3.35;;;1.77;;
38132;SDS011;23948;43.252;26.572;2023-04-03T00:02:32;3.70;;;1.65;;
38132;SDS011;23948;43.252;26.572;2023-04-03T00:04:57;2.70;;;1.60;;
38132;SDS011;23948;43.252;26.572;2023-04-03T00:07:22;2.65;;;1.80;;
38132;SDS011;23948;43.252;26.572;2023-04-03T00:09:47;3.00;;;1.60;;
38132;SDS011;23948;43.252;26.572;2023-04-03T00:12:13;2.58;;;1.55;;
38132;SDS011;23948;43.252;26.572;2023-04-03T00:14:38;3.50;;;1.75;;
38132;SDS011;23948;43.252;26.572;2023-04-03T00:17:03;2.13;;;1.50;;
38132;SDS011;23948;43.252;26.572;2023-04-03T00:19:29;4.88;;;1.60;;
38132;SDS011;23948;43.252;26.572;2023-04-03T00:21:54;3.17;;;1.50;;
38132;SDS011;23948;43.252;26.572;2023-04-03T00:24:19;3.95;;;1.80;;
38132;SDS011;23948;43.252;26.572;2023-04-03T00:26:44;3.05;;;1.70;;
38132;SDS011;23948;43.252;26.572;2023-04-03T00:29:10;4.00;;;1.60;;
38132;SDS011;23948;43.252;26.572;2023-04-03T00:31:35;2.30;;;1.35;;
38132;SDS011;23948;43.252;26.572;2023-04-03T00:34:00;3.13;;;1.80;;
38132;SDS011;23948;43.252;26.572;2023-04-03T00:36:26;3.03;;;1.65;;
38132;SDS011;23948;43.252;26.572;2023-04-03T00:38:51;3.55;;;1.88;;
38132;SDS011;23948;43.252;26.572;2023-04-03T00:41:16;2.33;;;1.58;;
38132;SDS011;23948;43.252;26.572;2023-04-03T00:43:41;2.20;;;1.50;;
38132;SDS011;23948;43.252;26.572;2023-04-03T00:46:07;3.65;;;1.70;;
38132;SDS011;23948;43.252;26.572;2023-04-03T00:48:33;2.95;;;1.70;;
38132;SDS011;23948;43.252;26.572;2023-04-03T00:50:59;3.10;;;1.52;;
38132;SDS011;23948;43.252;26.572;2023-04-03T00:53:29;3.17;;;1.58;;
38132;SDS011;23948;43.252;26.572;2023-04-03T00:55:55;3.85;;;1.52;;
38132;SDS011;23948;43.252;26.572;2023-04-03T00:58:21;2.17;;;1.50;;
38132;SDS011;23948;43.252;26.572;2023-04-03T01:00:50;3.13;;;1.48;;
38132;SDS011;23948;43.252;26.572;2023-04-03T01:03:21;3.10;;;1.70;;
38132;SDS011;23948;43.252;26.572;2023-04-03T01:05:46;3.00;;;1.55;;
38132;SDS011;23948;43.252;26.572;2023-04-03T01:08:12;4.18;;;2.10;;
38132;SDS011;23948;43.252;26.572;2023-04-03T01:10:37;3.25;;;1.50;;
38132;SDS011;23948;43.252;26.572;2023-04-03T01:13:02;2.72;;;1.58;;
38132;SDS011;23948;43.252;26.572;2023-04-03T01:15:42;4.28;;;1.90;;
38132;SDS011;23948;43.252;26.572;2023-04-03T01:18:09;2.58;;;1.65;;
38132;SDS011;23948;43.252;26.572;2023-04-03T01:20:44;3.53;;;1.70;;
38132;SDS011;23948;43.252;26.572;2023-04-03T01:25:50;4.05;;;1.77;;
38132;SDS011;23948;43.252;26.572;2023-04-03T01:28:17;2.28;;;1.38;;
38132;SDS011;23948;43.252;26.572;2023-04-03T01:33:14;2.10;;;1.30;;
38132;SDS011;23948;43.252;26.572;2023-04-03T01:35:39;2.45;;;1.63;;
38132;SDS011;23948;43.252;26.572;2023-04-03T01:38:05;2.75;;;1.73;;
38132;SDS011;23948;43.252;26.572;2023-04-03T01:40:30;4.10;;;2.17;;
38132;SDS011;23948;43.252;26.572;2023-04-03T01:42:56;3.35;;;1.73;;
38132;SDS011;23948;43.252;26.572;2023-04-03T01:45:21;2.78;;;1.60;;
38132;SDS011;23948;43.252;26.572;2023-04-03T01:47:46;2.55;;;1.52;;
38132;SDS011;23948;43.252;26.572;2023-04-03T01:50:12;2.88;;;1.63;;
38132;SDS011;23948;43.252;26.572;2023-04-03T01:52:37;2.78;;;1.60;;
38132;SDS011;23948;43.252;26.572;2023-04-03T01:55:02;3.60;;;1.80;;
38132;SDS011;23948;43.252;26.572;2023-04-03T01:57:27;2.22;;;1.58;;
38132;SDS011;23948;43.252;26.572;2023-04-03T01:59:53;3.47;;;1.63;;
38132;SDS011;23948;43.252;26.572;2023-04-03T02:02:18;3.95;;;1.70;;
38132;SDS011;23948;43.252;26.572;2023-04-03T02:04:45;3.45;;;1.60;;
38132;SDS011;23948;43.252;26.572;2023-04-03T02:07:10;2.97;;;1.90;;
38132;SDS011;23948;43.252;26.572;2023-04-03T02:09:35;2.80;;;1.55;;
38132;SDS011;23948;43.252;26.572;2023-04-03T02:12:01;2.58;;;1.60;;
38132;SDS011;23948;43.252;26.572;2023-04-03T02:14:26;3.67;;;2.08;;
38132;SDS011;23948;43.252;26.572;2023-04-03T02:16:52;4.78;;;1.77;;
38132;SDS011;23948;43.252;26.572;2023-04-03T02:19:17;2.33;;;1.60;;
38132;SDS011;23948;43.252;26.572;2023-04-03T02:21:43;3.17;;;1.80;;
38132;SDS011;23948;43.252;26.572;2023-04-03T02:24:08;3.03;;;1.65;;
38132;SDS011;23948;43.252;26.572;2023-04-03T02:26:33;2.28;;;1.45;;
38132;SDS011;23948;43.252;26.572;2023-04-03T02:28:59;4.00;;;1.70;;
38132;SDS011;23948;43.252;26.572;2023-04-03T02:31:24;2.50;;;1.60;;
38132;SDS011;23948;43.252;26.572;2023-04-03T02:33:49;2.83;;;1.77;;
38132;SDS011;23948;43.252;26.572;2023-04-03T02:36:15;3.28;;;1.58;;
38132;SDS011;23948;43.252;26.572;2023-04-03T02:38:40;3.35;;;1.48;;
38132;SDS011;23948;43.252;26.572;2023-04-03T02:41:06;12.63;;;8.38;;
38132;SDS011;23948;43.252;26.572;2023-04-03T02:43:32;16.63;;;11.80;;
38132;SDS011;23948;43.252;26.572;2023-04-03T02:45:57;7.38;;;5.07;;
38132;SDS011;23948;43.252;26.572;2023-04-03T02:48:23;5.45;;;2.85;;
38132;SDS011;23948;43.252;26.572;2023-04-03T02:50:48;5.20;;;3.00;;
38132;SDS011;23948;43.252;26.572;2023-04-03T02:53:14;5.50;;;3.03;;
38132;SDS011;23948;43.252;26.572;2023-04-03T02:55:40;3.20;;;2.05;;
38132;SDS011;23948;43.252;26.572;2023-04-03T02:58:05;3.38;;;2.05;;
38132;SDS011;23948;43.252;26.572;2023-04-03T03:00:31;4.85;;;2.65;;
38132;SDS011;23948;43.252;26.572;2023-04-03T03:02:56;6.57;;;2.80;;
38132;SDS011;23948;43.252;26.572;2023-04-03T03:05:21;6.53;;;2.80;;
38132;SDS011;23948;43.252;26.572;2023-04-03T03:07:47;7.18;;;3.00;;
38132;SDS011;23948;43.252;26.572;2023-04-03T03:10:12;5.30;;;3.00;;
38132;SDS011;23948;43.252;26.572;2023-04-03T03:12:38;6.75;;;3.00;;
38132;SDS011;23948;43.252;26.572;2023-04-03T03:15:03;5.40;;;3.42;;
38132;SDS011;23948;43.252;26.572;2023-04-03T03:17:28;10.95;;;3.70;;
38132;SDS011;23948;43.252;26.572;2023-04-03T03:19:54;6.97;;;3.38;;
38132;SDS011;23948;43.252;26.572;2023-04-03T03:22:19;7.13;;;3.28;;
38132;SDS011;23948;43.252;26.572;2023-04-03T03:24:45;6.13;;;3.50;;
38132;SDS011;23948;43.252;26.572;2023-04-03T03:27:10;7.63;;;3.67;;
38132;SDS011;23948;43.252;26.572;2023-04-03T03:29:37;6.03;;;3.13;;
38132;SDS011;23948;43.252;26.572;2023-04-03T03:32:02;7.00;;;3.50;;
38132;SDS011;23948;43.252;26.572;2023-04-03T03:34:27;14.10;;;4.10;;
38132;SDS011;23948;43.252;26.572;2023-04-03T03:36:52;8.10;;;4.53;;
38132;SDS011;23948;43.252;26.572;2023-04-03T03:39:18;9.05;;;4.10;;
38132;SDS011;23948;43.252;26.572;2023-04-03T03:41:43;8.65;;;4.45;;
38132;SDS011;23948;43.252;26.572;2023-04-03T03:44:08;7.18;;;4.13;;
38132;SDS011;23948;43.252;26.572;2023-04-03T03:46:34;7.70;;;3.92;;
38132;SDS011;23948;43.252;26.572;2023-04-03T03:48:59;9.52;;;4.28;;
38132;SDS011;23948;43.252;26.572;2023-04-03T03:51:24;5.60;;;3.38;;
38132;SDS011;23948;43.252;26.572;2023-04-03T03:53:50;6.40;;;4.15;;
38132;SDS011;23948;43.252;26.572;2023-04-03T03:56:35;12.93;;;5.35;;
38132;SDS011;23948;43.252;26.572;2023-04-03T03:59:00;9.27;;;4.95;;
38132;SDS011;23948;43.252;26.572;2023-04-03T04:01:25;9.88;;;4.63;;
38132;SDS011;23948;43.252;26.572;2023-04-03T04:03:51;7.63;;;4.10;;
38132;SDS011;23948;43.252;26.572;2023-04-03T04:06:16;11.68;;;3.67;;
38132;SDS011;23948;43.252;26.572;2023-04-03T04:08:41;9.00;;;3.50;;
38132;SDS011;23948;43.252;26.572;2023-04-03T04:11:07;9.35;;;3.40;;
38132;SDS011;23948;43.252;26.572;2023-04-03T04:13:32;7.63;;;3.28;;
38132;SDS011;23948;43.252;26.572;2023-04-03T04:15:58;10.43;;;3.92;;
38132;SDS011;23948;43.252;26.572;2023-04-03T04:18:23;12.30;;;5.60;;
38132;SDS011;23948;43.252;26.572;2023-04-03T04:20:49;10.48;;;5.55;;
38132;SDS011;23948;43.252;26.572;2023-04-03T04:23:15;13.18;;;5.53;;
38132;SDS011;23948;43.252;26.572;2023-04-03T04:25:40;8.15;;;4.97;;
38132;SDS011;23948;43.252;26.572;2023-04-03T04:28:06;23.05;;;6.78;;
38132;SDS011;23948;43.252;26.572;2023-04-03T04:30:31;20.00;;;9.45;;
38132;SDS011;23948;43.252;26.572;2023-04-03T04:32:56;17.73;;;8.63;;
38132;SDS011;23948;43.252;26.572;2023-04-03T04:35:21;19.92;;;8.45;;
38132;SDS011;23948;43.252;26.572;2023-04-03T04:37:47;30.67;;;12.95;;
38132;SDS011;23948;43.252;26.572;2023-04-03T04:40:12;29.23;;;14.75;;
38132;SDS011;23948;43.252;26.572;2023-04-03T04:42:37;23.73;;;13.65;;
38132;SDS011;23948;43.252;26.572;2023-04-03T04:45:03;30.85;;;15.05;;
38132;SDS011;23948;43.252;26.572;2023-04-03T04:47:28;23.83;;;12.27;;
38132;SDS011;23948;43.252;26.572;2023-04-03T04:49:54;27.75;;;14.55;;
38132;SDS011;23948;43.252;26.572;2023-04-03T04:52:20;41.97;;;22.70;;
38132;SDS011;23948;43.252;26.572;2023-04-03T04:54:45;28.50;;;16.75;;
38132;SDS011;23948;43.252;26.572;2023-04-03T04:57:10;35.72;;;18.83;;
38132;SDS011;23948;43.252;26.572;2023-04-03T04:59:36;25.38;;;14.40;;
38132;SDS011;23948;43.252;26.572;2023-04-03T05:02:01;19.13;;;12.25;;
38132;SDS011;23948;43.252;26.572;2023-04-03T05:04:26;20.65;;;9.82;;
38132;SDS011;23948;43.252;26.572;2023-04-03T05:06:51;23.98;;;10.10;;
38132;SDS011;23948;43.252;26.572;2023-04-03T05:09:17;27.50;;;11.27;;
38132;SDS011;23948;43.252;26.572;2023-04-03T05:11:43;20.85;;;7.05;;
38132;SDS011;23948;43.252;26.572;2023-04-03T05:14:08;16.95;;;7.15;;
38132;SDS011;23948;43.252;26.572;2023-04-03T05:16:33;10.77;;;6.57;;
38132;SDS011;23948;43.252;26.572;2023-04-03T05:18:59;11.25;;;6.22;;
38132;SDS011;23948;43.252;26.572;2023-04-03T05:21:24;14.32;;;6.18;;
38132;SDS011;23948;43.252;26.572;2023-04-03T05:23:51;13.50;;;6.43;;
38132;SDS011;23948;43.252;26.572;2023-04-03T05:26:16;10.15;;;6.80;;
38132;SDS011;23948;43.252;26.572;2023-04-03T05:28:42;14.40;;;7.53;;
38132;SDS011;23948;43.252;26.572;2023-04-03T05:31:07;28.13;;;12.32;;
38132;SDS011;23948;43.252;26.572;2023-04-03T05:33:32;17.45;;;7.10;;
38132;SDS011;23948;43.252;26.572;2023-04-03T05:36:01;21.25;;;10.93;;
38132;SDS011;23948;43.252;26.572;2023-04-03T05:38:27;22.08;;;13.88;;
38132;SDS011;23948;43.252;26.572;2023-04-03T05:40:53;20.50;;;13.57;;
38132;SDS011;23948;43.252;26.572;2023-04-03T05:43:19;21.73;;;11.80;;
38132;SDS011;23948;43.252;26.572;2023-04-03T05:45:45;20.13;;;11.50;;
38132;SDS011;23948;43.252;26.572;2023-04-03T05:48:12;17.55;;;10.35;;
38132;SDS011;23948;43.252;26.572;2023-04-03T05:50:37;18.95;;;10.23;;
38132;SDS011;23948;43.252;26.572;2023-04-03T05:53:06;9.63;;;5.55;;
38132;SDS011;23948;43.252;26.572;2023-04-03T05:55:32;22.35;;;11.73;;
38132;SDS011;23948;43.252;26.572;2023-04-03T05:57:57;28.00;;;16.05;;
38132;SDS011;23948;43.252;26.572;2023-04-03T06:00:22;21.27;;;11.63;;
38132;SDS011;23948;43.252;26.572;2023-04-03T06:02:49;18.02;;;10.75;;
38132;SDS011;23948;43.252;26.572;2023-04-03T06:05:14;18.13;;;9.77;;
38132;SDS011;23948;43.252;26.572;2023-04-03T06:07:40;31.52;;;11.57;;
38132;SDS011;23948;43.252;26.572;2023-04-03T06:10:05;23.65;;;13.02;;
38132;SDS011;23948;43.252;26.572;2023-04-03T06:12:31;23.70;;;13.52;;
38132;SDS011;23948;43.252;26.572;2023-04-03T06:14:57;24.77;;;13.07;;
38132;SDS011;23948;43.252;26.572;2023-04-03T06:17:22;21.15;;;12.00;;
38132;SDS011;23948;43.252;26.572;2023-04-03T06:19:47;30.20;;;13.20;;
38132;SDS011;23948;43.252;26.572;2023-04-03T06:22:13;25.90;;;13.30;;
38132;SDS011;23948;43.252;26.572;2023-04-03T06:24:38;26.90;;;8.25;;
38132;SDS011;23948;43.252;26.572;2023-04-03T06:27:04;18.73;;;6.65;;
38132;SDS011;23948;43.252;26.572;2023-04-03T06:29:29;18.02;;;6.10;;
38132;SDS011;23948;43.252;26.572;2023-04-03T06:31:55;17.70;;;5.03;;
38132;SDS011;23948;43.252;26.572;2023-04-03T06:34:20;15.20;;;5.60;;
38132;SDS011;23948;43.252;26.572;2023-04-03T06:36:46;7.50;;;4.13;;
38132;SDS011;23948;43.252;26.572;2023-04-03T06:39:13;10.15;;;4.05;;
38132;SDS011;23948;43.252;26.572;2023-04-03T06:41:38;8.75;;;4.50;;
38132;SDS011;23948;43.252;26.572;2023-04-03T06:44:04;7.53;;;3.17;;
38132;SDS011;23948;43.252;26.572;2023-04-03T06:46:29;7.38;;;3.22;;
38132;SDS011;23948;43.252;26.572;2023-04-03T06:48:54;8.05;;;3.78;;
38132;SDS011;23948;43.252;26.572;2023-04-03T06:51:27;5.68;;;3.50;;
38132;SDS011;23948;43.252;26.572;2023-04-03T06:53:53;6.43;;;3.38;;
38132;SDS011;23948;43.252;26.572;2023-04-03T06:56:19;7.75;;;3.28;;
38132;SDS011;23948;43.252;26.572;2023-04-03T06:58:44;10.35;;;3.45;;
38132;SDS011;23948;43.252;26.572;2023-04-03T07:01:10;7.07;;;3.55;;
38132;SDS011;23948;43.252;26.572;2023-04-03T07:03:37;7.40;;;3.20;;
38132;SDS011;23948;43.252;26.572;2023-04-03T07:06:03;6.72;;;3.50;;
38132;SDS011;23948;43.252;26.572;2023-04-03T07:08:29;5.75;;;3.03;;
38132;SDS011;23948;43.252;26.572;2023-04-03T07:10:54;6.05;;;3.40;;
38132;SDS011;23948;43.252;26.572;2023-04-03T07:13:19;7.63;;;3.28;;
38132;SDS011;23948;43.252;26.572;2023-04-03T07:15:45;8.18;;;3.72;;
38132;SDS011;23948;43.252;26.572;2023-04-03T07:18:10;7.60;;;3.30;;
38132;SDS011;23948;43.252;26.572;2023-04-03T07:20:36;7.68;;;4.00;;
38132;SDS011;23948;43.252;26.572;2023-04-03T07:23:01;17.60;;;9.00;;
38132;SDS011;23948;43.252;26.572;2023-04-03T07:25:27;12.38;;;5.30;;
38132;SDS011;23948;43.252;26.572;2023-04-03T07:27:52;19.58;;;8.27;;
38132;SDS011;23948;43.252;26.572;2023-04-03T07:30:19;29.02;;;15.32;;
38132;SDS011;23948;43.252;26.572;2023-04-03T07:32:44;12.73;;;6.18;;
38132;SDS011;23948;43.252;26.572;2023-04-03T07:35:10;12.57;;;4.63;;
38132;SDS011;23948;43.252;26.572;2023-04-03T07:37:35;11.00;;;3.85;;
38132;SDS011;23948;43.252;26.572;2023-04-03T07:40:00;6.72;;;3.28;;
38132;SDS011;23948;43.252;26.572;2023-04-03T07:42:28;7.15;;;3.10;;
38132;SDS011;23948;43.252;26.572;2023-04-03T07:44:53;5.55;;;2.63;;
38132;SDS011;23948;43.252;26.572;2023-04-03T07:47:19;6.80;;;3.20;;
38132;SDS011;23948;43.252;26.572;2023-04-03T07:49:45;8.50;;;2.70;;
38132;SDS011;23948;43.252;26.572;2023-04-03T07:52:11;7.40;;;2.58;;
38132;SDS011;23948;43.252;26.572;2023-04-03T07:54:36;6.97;;;2.83;;
38132;SDS011;23948;43.252;26.572;2023-04-03T07:57:02;7.20;;;2.90;;
38132;SDS011;23948;43.252;26.572;2023-04-03T07:59:28;6.45;;;3.38;;
38132;SDS011;23948;43.252;26.572;2023-04-03T08:01:53;6.53;;;2.67;;
38132;SDS011;23948;43.252;26.572;2023-04-03T08:04:18;7.18;;;3.10;;
38132;SDS011;23948;43.252;26.572;2023-04-03T08:06:43;6.50;;;2.40;;
38132;SDS011;23948;43.252;26.572;2023-04-03T08:09:09;6.57;;;2.50;;
38132;SDS011;23948;43.252;26.572;2023-04-03T08:11:34;6.88;;;2.33;;
38132;SDS011;23948;43.252;26.572;2023-04-03T08:14:01;3.85;;;2.20;;
38132;SDS011;23948;43.252;26.572;2023-04-03T08:16:27;8.65;;;5.07;;
38132;SDS011;23948;43.252;26.572;2023-04-03T08:18:53;7.90;;;3.03;;
38132;SDS011;23948;43.252;26.572;2023-04-03T08:21:19;7.65;;;3.00;;
38132;SDS011;23948;43.252;26.572;2023-04-03T08:23:48;6.03;;;4.40;;
38132;SDS011;23948;43.252;26.572;2023-04-03T08:26:15;4.50;;;2.28;;
38132;SDS011;23948;43.252;26.572;2023-04-03T08:28:41;8.25;;;2.97;;
38132;SDS011;23948;43.252;26.572;2023-04-03T08:31:07;8.77;;;4.60;;
38132;SDS011;23948;43.252;26.572;2023-04-03T08:33:33;7.85;;;2.75;;
38132;SDS011;23948;43.252;26.572;2023-04-03T08:35:58;8.25;;;3.20;;
38132;SDS011;23948;43.252;26.572;2023-04-03T08:38:24;5.38;;;3.15;;
38132;SDS011;23948;43.252;26.572;2023-04-03T08:41:13;4.30;;;2.20;;
38132;SDS011;23948;43.252;26.572;2023-04-03T08:43:53;7.50;;;2.00;;
38132;SDS011;23948;43.252;26.572;2023-04-03T08:46:20;5.50;;;2.20;;
38132;SDS011;23948;43.252;26.572;2023-04-03T08:48:47;4.22;;;2.22;;
38132;SDS011;23948;43.252;26.572;2023-04-03T08:51:15;14.48;;;11.68;;
38132;SDS011;23948;43.252;26.572;2023-04-03T08:54:03;4.50;;;2.00;;
38132;SDS011;23948;43.252;26.572;2023-04-03T08:56:27;14.25;;;7.00;;
38132;SDS011;23948;43.252;26.572;2023-04-03T08:58:56;8.63;;;4.55;;
38132;SDS011;23948;43.252;26.572;2023-04-03T09:01:24;3.58;;;1.98;;
38132;SDS011;23948;43.252;26.572;2023-04-03T09:03:51;5.05;;;2.67;;
38132;SDS011;23948;43.252;26.572;2023-04-03T09:06:21;7.05;;;4.05;;
38132;SDS011;23948;43.252;26.572;2023-04-03T09:08:59;2.95;;;1.70;;
38132;SDS011;23948;43.252;26.572;2023-04-03T09:11:40;7.50;;;5.40;;
38132;SDS011;23948;43.252;26.572;2023-04-03T09:21:41;5.25;;;2.13;;
38132;SDS011;23948;43.252;26.572;2023-04-03T09:24:07;12.82;;;1.90;;
38132;SDS011;23948;43.252;26.572;2023-04-03T09:26:36;8.15;;;2.72;;
38132;SDS011;23948;43.252;26.572;2023-04-03T09:29:05;6.20;;;2.42;;
38132;SDS011;23948;43.252;26.572;2023-04-03T09:31:38;6.70;;;1.45;;
38132;SDS011;23948;43.252;26.572;2023-04-03T09:34:08;7.30;;;1.95;;
38132;SDS011;23948;43.252;26.572;2023-04-03T09:39:04;3.30;;;1.40;;
38132;SDS011;23948;43.252;26.572;2023-04-03T09:41:30;4.55;;;1.40;;
38132;SDS011;23948;43.252;26.572;2023-04-03T09:43:58;4.43;;;1.60;;
38132;SDS011;23948;43.252;26.572;2023-04-03T09:48:56;1.83;;;1.40;;
38132;SDS011;23948;43.252;26.572;2023-04-03T09:51:24;1.30;;;1.00;;
38132;SDS011;23948;43.252;26.572;2023-04-03T09:53:49;2.25;;;1.40;;
38132;SDS011;23948;43.252;26.572;2023-04-03T09:58:42;4.27;;;2.30;;
38132;SDS011;23948;43.252;26.572;2023-04-03T10:01:09;3.45;;;1.33;;
38132;SDS011;23948;43.252;26.572;2023-04-03T10:03:45;2.92;;;1.30;;
38132;SDS011;23948;43.252;26.572;2023-04-03T10:06:21;2.60;;;1.58;;
38132;SDS011;23948;43.252;26.572;2023-04-03T10:08:58;5.65;;;1.92;;
38132;SDS011;23948;43.252;26.572;2023-04-03T10:11:23;4.30;;;1.80;;
38132;SDS011;23948;43.252;26.572;2023-04-03T10:13:50;4.13;;;1.50;;
38132;SDS011;23948;43.252;26.572;2023-04-03T10:16:18;4.72;;;1.80;;
38132;SDS011;23948;43.252;26.572;2023-04-03T10:18:46;7.93;;;1.98;;
38132;SDS011;23948;43.252;26.572;2023-04-03T10:23:44;3.45;;;1.60;;
38132;SDS011;23948;43.252;26.572;2023-04-03T10:52:00;4.45;;;3.17;;
38132;SDS011;23948;43.252;26.572;2023-04-03T10:54:35;2.90;;;1.50;;
38132;SDS011;23948;43.252;26.572;2023-04-03T10:57:08;2.97;;;1.40;;
38132;SDS011;23948;43.252;26.572;2023-04-03T11:02:28;3.92;;;1.70;;
38132;SDS011;23948;43.252;26.572;2023-04-03T11:05:17;2.83;;;1.52;;
38132;SDS011;23948;43.252;26.572;2023-04-03T11:07:45;4.65;;;1.90;;
38132;SDS011;23948;43.252;26.572;2023-04-03T11:10:13;2.30;;;1.55;;
38132;SDS011;23948;43.252;26.572;2023-04-03T11:12:42;3.53;;;2.00;;
38132;SDS011;23948;43.252;26.572;2023-04-03T11:15:11;2.05;;;1.38;;
38132;SDS011;23948;43.252;26.572;2023-04-03T11:17:39;4.10;;;1.90;;
38132;SDS011;23948;43.252;26.572;2023-04-03T11:22:53;8.95;;;3.92;;
38132;SDS011;23948;43.252;26.572;2023-04-03T11:25:22;2.55;;;1.65;;
38132;SDS011;23948;43.252;26.572;2023-04-03T11:27:55;5.82;;;2.58;;
38132;SDS011;23948;43.252;26.572;2023-04-03T11:30:38;2.83;;;1.60;;
38132;SDS011;23948;43.252;26.572;2023-04-03T11:35:35;4.63;;;2.22;;
38132;SDS011;23948;43.252;26.572;2023-04-03T11:38:01;7.45;;;4.57;;
38132;SDS011;23948;43.252;26.572;2023-04-03T11:40:34;5.17;;;1.90;;
38132;SDS011;23948;43.252;26.572;2023-04-03T11:50:59;7.75;;;2.30;;
38132;SDS011;23948;43.252;26.572;2023-04-03T11:56:04;3.35;;;1.90;;
38132;SDS011;23948;43.252;26.572;2023-04-03T11:58:33;7.80;;;3.33;;
38132;SDS011;23948;43.252;26.572;2023-04-03T12:05:55;12.82;;;8.02;;
38132;SDS011;23948;43.252;26.572;2023-04-03T12:08:27;5.45;;;2.30;;
38132;SDS011;23948;43.252;26.572;2023-04-03T12:16:08;6.95;;;3.65;;
38132;SDS011;23948;43.252;26.572;2023-04-03T12:29:19;14.55;;;6.28;;
38132;SDS011;23948;43.252;26.572;2023-04-03T12:32:09;10.32;;;6.45;;
38132;SDS011;23948;43.252;26.572;2023-04-03T12:37:23;8.68;;;4.40;;
38132;SDS011;23948;43.252;26.572;2023-04-03T12:42:30;5.57;;;3.20;;
38132;SDS011;23948;43.252;26.572;2023-04-03T12:47:32;9.45;;;8.07;;
38132;SDS011;23948;43.252;26.572;2023-04-03T12:50:01;6.15;;;3.55;;
38132;SDS011;23948;43.252;26.572;2023-04-03T12:52:50;11.13;;;4.70;;
38132;SDS011;23948;43.252;26.572;2023-04-03T12:55:15;7.20;;;3.35;;
38132;SDS011;23948;43.252;26.572;2023-04-03T12:57:40;9.82;;;3.47;;
38132;SDS011;23948;43.252;26.572;2023-04-03T13:00:20;3.88;;;2.55;;
38132;SDS011;23948;43.252;26.572;2023-04-03T13:02:46;7.38;;;3.50;;
38132;SDS011;23948;43.252;26.572;2023-04-03T13:05:14;7.65;;;3.35;;
38132;SDS011;23948;43.252;26.572;2023-04-03T13:07:40;7.57;;;3.78;;
38132;SDS011;23948;43.252;26.572;2023-04-03T13:12:33;9.93;;;5.07;;
38132;SDS011;23948;43.252;26.572;2023-04-03T13:15:11;6.43;;;2.85;;
38132;SDS011;23948;43.252;26.572;2023-04-03T13:17:41;13.05;;;4.70;;
38132;SDS011;23948;43.252;26.572;2023-04-03T13:20:22;11.83;;;6.97;;
38132;SDS011;23948;43.252;26.572;2023-04-03T13:22:49;6.90;;;4.88;;
38132;SDS011;23948;43.252;26.572;2023-04-03T13:25:17;3.97;;;2.22;;
38132;SDS011;23948;43.252;26.572;2023-04-03T13:27:45;7.82;;;3.92;;
38132;SDS011;23948;43.252;26.572;2023-04-03T13:30:24;7.65;;;3.60;;
38132;SDS011;23948;43.252;26.572;2023-04-03T13:32:50;7.10;;;2.63;;
38132;SDS011;23948;43.252;26.572;2023-04-03T13:37:54;5.28;;;3.70;;
38132;SDS011;23948;43.252;26.572;2023-04-03T13:40:20;6.40;;;3.85;;
38132;SDS011;23948;43.252;26.572;2023-04-03T13:42:46;4.40;;;2.50;;
38132;SDS011;23948;43.252;26.572;2023-04-03T13:47:49;9.68;;;7.70;;
38132;SDS011;23948;43.252;26.572;2023-04-03T13:50:17;7.68;;;4.63;;
38132;SDS011;23948;43.252;26.572;2023-04-03T13:52:47;12.20;;;5.10;;
38132;SDS011;23948;43.252;26.572;2023-04-03T14:02:56;10.77;;;7.95;;
38132;SDS011;23948;43.252;26.572;2023-04-03T14:05:21;10.57;;;5.35;;
38132;SDS011;23948;43.252;26.572;2023-04-03T14:07:47;7.68;;;5.63;;
38132;SDS011;23948;43.252;26.572;2023-04-03T14:10:12;13.27;;;8.77;;
38132;SDS011;23948;43.252;26.572;2023-04-03T14:12:37;10.07;;;6.55;;
38132;SDS011;23948;43.252;26.572;2023-04-03T14:15:11;7.88;;;5.60;;
38132;SDS011;23948;43.252;26.572;2023-04-03T14:17:40;6.72;;;3.92;;
38132;SDS011;23948;43.252;26.572;2023-04-03T14:20:05;6.47;;;3.33;;
38132;SDS011;23948;43.252;26.572;2023-04-03T14:22:32;4.57;;;2.70;;
38132;SDS011;23948;43.252;26.572;2023-04-03T14:24:57;4.85;;;2.60;;
38132;SDS011;23948;43.252;26.572;2023-04-03T14:30:20;9.20;;;5.22;;
38132;SDS011;23948;43.252;26.572;2023-04-03T14:32:46;9.15;;;5.07;;
38132;SDS011;23948;43.252;26.572;2023-04-03T14:35:12;7.25;;;4.85;;
38132;SDS011;23948;43.252;26.572;2023-04-03T14:37:37;7.30;;;5.28;;
38132;SDS011;23948;43.252;26.572;2023-04-03T14:40:04;4.40;;;2.20;;
38132;SDS011;23948;43.252;26.572;2023-04-03T14:42:31;18.42;;;12.75;;
38132;SDS011;23948;43.252;26.572;2023-04-03T14:44:57;45.03;;;30.50;;
38132;SDS011;23948;43.252;26.572;2023-04-03T14:47:24;9.20;;;6.47;;
38132;SDS011;23948;43.252;26.572;2023-04-03T14:49:51;9.55;;;7.35;;
38132;SDS011;23948;43.252;26.572;2023-04-03T14:52:25;8.48;;;5.22;;
38132;SDS011;23948;43.252;26.572;2023-04-03T14:54:51;9.80;;;6.45;;
38132;SDS011;23948;43.252;26.572;2023-04-03T14:57:16;15.25;;;9.93;;
38132;SDS011;23948;43.252;26.572;2023-04-03T14:59:45;19.23;;;13.13;;
38132;SDS011;23948;43.252;26.572;2023-04-03T15:04:54;35.85;;;23.38;;
38132;SDS011;23948;43.252;26.572;2023-04-03T15:07:20;22.48;;;17.30;;
38132;SDS011;23948;43.252;26.572;2023-04-03T15:09:46;22.52;;;16.08;;
38132;SDS011;23948;43.252;26.572;2023-04-03T15:12:11;26.45;;;19.45;;
38132;SDS011;23948;43.252;26.572;2023-04-03T15:14:37;22.67;;;17.10;;
38132;SDS011;23948;43.252;26.572;2023-04-03T15:17:03;13.55;;;11.63;;
38132;SDS011;23948;43.252;26.572;2023-04-03T15:19:30;16.30;;;12.73;;
38132;SDS011;23948;43.252;26.572;2023-04-03T15:21:56;14.15;;;11.68;;
38132;SDS011;23948;43.252;26.572;2023-04-03T15:24:21;14.95;;;11.85;;
38132;SDS011;23948;43.252;26.572;2023-04-03T15:26:46;15.15;;;11.82;;
38132;SDS011;23948;43.252;26.572;2023-04-03T15:29:12;14.02;;;10.98;;
38132;SDS011;23948;43.252;26.572;2023-04-03T15:31:37;12.95;;;11.27;;
38132;SDS011;23948;43.252;26.572;2023-04-03T15:34:02;22.45;;;17.13;;
38132;SDS011;23948;43.252;26.572;2023-04-03T15:36:28;19.38;;;15.68;;
38132;SDS011;23948;43.252;26.572;2023-04-03T15:38:53;22.85;;;16.55;;
38132;SDS011;23948;43.252;26.572;2023-04-03T15:41:18;30.88;;;24.20;;
38132;SDS011;23948;43.252;26.572;2023-04-03T15:43:44;16.20;;;12.35;;
38132;SDS011;23948;43.252;26.572;2023-04-03T15:46:09;16.52;;;11.52;;
38132;SDS011;23948;43.252;26.572;2023-04-03T15:48:35;13.20;;;10.93;;
38132;SDS011;23948;43.252;26.572;2023-04-03T15:51:00;12.52;;;10.80;;
38132;SDS011;23948;43.252;26.572;2023-04-03T15:53:26;12.45;;;10.50;;
38132;SDS011;23948;43.252;26.572;2023-04-03T15:55:51;18.83;;;13.05;;
38132;SDS011;23948;43.252;26.572;2023-04-03T15:58:17;12.77;;;10.32;;
38132;SDS011;23948;43.252;26.572;2023-04-03T16:00:42;12.48;;;9.60;;
38132;SDS011;23948;43.252;26.572;2023-04-03T16:03:11;12.32;;;9.68;;
38132;SDS011;23948;43.252;26.572;2023-04-03T16:05:37;12.93;;;9.68;;
38132;SDS011;23948;43.252;26.572;2023-04-03T16:08:02;11.98;;;9.85;;
38132;SDS011;23948;43.252;26.572;2023-04-03T16:10:28;14.35;;;11.02;;
38132;SDS011;23948;43.252;26.572;2023-04-03T16:12:54;15.20;;;11.18;;
38132;SDS011;23948;43.252;26.572;2023-04-03T16:15:19;13.75;;;9.98;;
38132;SDS011;23948;43.252;26.572;2023-04-03T16:17:44;12.93;;;9.35;;
38132;SDS011;23948;43.252;26.572;2023-04-03T16:20:10;12.55;;;9.55;;
38132;SDS011;23948;43.252;26.572;2023-04-03T16:22:36;12.00;;;9.90;;